createdAt,value
2018-08-03T00:00:33.614Z,19.60
2018-08-03T00:03:02.425Z,19.60
2018-08-03T00:05:31.005Z,19.50
2018-08-03T00:07:59.637Z,19.50
2018-08-03T00:10:28.261Z,19.40
2018-08-03T00:12:56.966Z,19.40
2018-08-03T00:15:25.646Z,19.40
2018-08-03T00:17:54.386Z,19.50
2018-08-03T00:20:22.994Z,19.50
2018-08-03T00:22:51.682Z,19.50
2018-08-03T00:25:20.379Z,19.50
2018-08-03T00:27:49.001Z,19.40
2018-08-03T00:30:17.681Z,19.40
2018-08-03T00:32:46.390Z,19.50
2018-08-03T00:35:15.015Z,19.40
2018-08-03T00:37:43.770Z,19.40
2018-08-03T00:40:13.452Z,19.40
2018-08-03T00:42:42.033Z,19.30
2018-08-03T00:45:10.721Z,19.30
2018-08-03T00:47:39.326Z,19.20
2018-08-03T00:50:07.930Z,19.20
2018-08-03T00:55:04.855Z,19.30
2018-08-03T00:57:33.459Z,19.30
2018-08-03T01:00:02.103Z,19.30
2018-08-03T01:02:30.746Z,19.30
2018-08-03T01:04:59.439Z,19.20
2018-08-03T01:07:28.082Z,19.20
2018-08-03T01:09:56.706Z,19.20
2018-08-03T01:12:25.375Z,19.10
2018-08-03T01:14:53.978Z,19.00
2018-08-03T01:17:22.546Z,19.00
2018-08-03T01:22:19.518Z,18.90
2018-08-03T01:24:48.156Z,18.80
2018-08-03T01:27:16.804Z,18.80
2018-08-03T01:29:45.526Z,18.80
2018-08-03T01:32:14.231Z,18.80
2018-08-03T01:34:42.973Z,18.80
2018-08-03T01:37:11.592Z,18.80
2018-08-03T01:39:40.192Z,18.80
2018-08-03T01:42:08.858Z,18.80
2018-08-03T01:44:37.494Z,18.80
2018-08-03T01:47:06.137Z,18.80
2018-08-03T01:49:34.867Z,18.80
2018-08-03T01:52:03.621Z,18.80
2018-08-03T01:54:32.270Z,18.80
2018-08-03T01:57:00.889Z,18.80
2018-08-03T01:59:29.583Z,18.70
2018-08-03T02:01:58.311Z,18.80
2018-08-03T02:04:27.128Z,18.70
2018-08-03T02:06:55.829Z,18.70
2018-08-03T02:09:24.437Z,18.60
2018-08-03T02:11:53.141Z,18.60
2018-08-03T02:14:21.875Z,18.60
2018-08-03T02:16:50.657Z,18.50
2018-08-03T02:19:19.442Z,18.50
2018-08-03T02:21:48.117Z,18.50
2018-08-03T02:24:16.813Z,18.50
2018-08-03T02:26:45.435Z,18.50
2018-08-03T02:29:14.023Z,18.50
2018-08-03T02:31:42.721Z,18.40
2018-08-03T02:34:11.462Z,18.40
2018-08-03T02:36:40.079Z,18.40
2018-08-03T02:39:11.149Z,18.40
2018-08-03T02:41:39.918Z,18.40
2018-08-03T02:44:09.586Z,18.30
2018-08-03T02:46:38.350Z,18.30
2018-08-03T02:49:07.133Z,18.40
2018-08-03T02:51:35.810Z,18.40
2018-08-03T02:54:04.477Z,18.40
2018-08-03T02:56:33.187Z,18.30
2018-08-03T02:59:01.798Z,18.30
2018-08-03T03:01:30.503Z,18.20
2018-08-03T03:04:00.143Z,18.20
2018-08-03T03:06:28.770Z,18.20
2018-08-03T03:08:57.374Z,18.20
2018-08-03T03:11:26.055Z,18.20
2018-08-03T03:13:54.693Z,18.30
2018-08-03T03:16:23.333Z,18.30
2018-08-03T03:18:51.912Z,18.40
2018-08-03T03:21:20.582Z,18.40
2018-08-03T03:23:49.243Z,18.50
2018-08-03T03:26:17.947Z,18.50
2018-08-03T03:28:46.582Z,18.50
2018-08-03T03:31:15.314Z,18.50
2018-08-03T03:33:43.938Z,18.50
2018-08-03T03:36:12.724Z,18.40
2018-08-03T03:38:41.341Z,18.40
2018-08-03T03:41:10.026Z,18.30
2018-08-03T03:43:38.706Z,18.30
2018-08-03T03:46:07.692Z,18.30
2018-08-03T03:48:36.433Z,18.30
2018-08-03T03:51:05.206Z,18.30
2018-08-03T03:53:33.912Z,18.30
2018-08-03T03:56:02.593Z,18.20
2018-08-03T03:58:31.242Z,18.20
2018-08-03T04:00:59.889Z,18.20
2018-08-03T04:03:28.737Z,18.10
2018-08-03T04:05:57.326Z,18.10
2018-08-03T04:08:25.950Z,18.00
2018-08-03T04:10:54.556Z,17.90
2018-08-03T04:13:23.259Z,17.90
2018-08-03T04:15:51.926Z,17.90
2018-08-03T04:18:22.201Z,17.90
2018-08-03T04:20:52.310Z,17.90
2018-08-03T04:23:21.310Z,17.90
2018-08-03T04:25:49.981Z,17.90
2018-08-03T04:28:18.637Z,18.00
2018-08-03T04:30:47.194Z,18.00
2018-08-03T04:33:15.843Z,18.00
2018-08-03T04:35:47.694Z,18.00
2018-08-03T04:38:16.311Z,18.10
2018-08-03T04:40:44.934Z,18.20
2018-08-03T04:43:13.627Z,18.20
2018-08-03T04:45:47.752Z,18.30
2018-08-03T04:48:16.902Z,18.40
2018-08-03T04:53:15.924Z,18.60
2018-08-03T04:55:44.615Z,18.70
2018-08-03T04:58:13.326Z,18.80
2018-08-03T05:00:42.351Z,18.90
2018-08-03T05:03:11.143Z,19.00
2018-08-03T05:05:39.824Z,19.00
2018-08-03T05:08:08.501Z,19.10
2018-08-03T05:10:37.113Z,19.30
2018-08-03T05:13:05.855Z,19.40
2018-08-03T05:15:34.707Z,19.60
2018-08-03T05:18:03.386Z,19.70
2018-08-03T05:20:50.614Z,19.80
2018-08-03T05:23:19.233Z,19.90
2018-08-03T05:25:47.952Z,20.00
2018-08-03T05:28:16.523Z,20.00
2018-08-03T05:30:45.173Z,20.10
2018-08-03T05:44:58.950Z,20.10
2018-08-03T05:50:00.535Z,20.20
2018-08-03T05:52:29.217Z,20.40
2018-08-03T05:54:57.879Z,20.40
2018-08-03T05:57:26.589Z,20.60
2018-08-03T05:59:55.545Z,20.80
2018-08-03T06:02:24.179Z,21.10
2018-08-03T06:04:52.985Z,21.30
2018-08-03T06:07:21.652Z,21.50
2018-08-03T06:09:50.321Z,21.60
2018-08-03T06:12:19.048Z,21.80
2018-08-03T06:14:47.720Z,21.90
2018-08-03T06:17:16.420Z,22.00
2018-08-03T06:19:45.101Z,22.20
2018-08-03T06:22:13.878Z,22.40
2018-08-03T06:24:50.994Z,22.50
2018-08-03T06:27:31.933Z,22.60
2018-08-03T06:30:00.566Z,22.70
2018-08-03T06:32:29.214Z,22.80
2018-08-03T06:34:57.939Z,23.00
2018-08-03T06:37:26.587Z,23.10
2018-08-03T06:43:12.670Z,23.30
2018-08-03T06:45:41.330Z,23.50
2018-08-03T06:48:10.069Z,23.90
2018-08-03T06:50:38.715Z,24.90
2018-08-03T06:53:07.995Z,26.30
2018-08-03T06:55:36.709Z,27.20
2018-08-03T07:00:33.634Z,27.20
2018-08-03T07:03:02.364Z,27.60
2018-08-03T07:05:31.161Z,28.20
2018-08-03T07:07:59.763Z,28.40
2018-08-03T07:10:28.446Z,28.70
2018-08-03T07:12:57.090Z,28.80
2018-08-03T07:15:25.706Z,28.20
2018-08-03T07:17:54.354Z,28.10
2018-08-03T07:20:23.205Z,28.80
2018-08-03T07:22:51.733Z,30.40
2018-08-03T07:25:20.326Z,32.30
2018-08-03T07:27:49.275Z,33.90
2018-08-03T07:30:17.871Z,34.60
2018-08-03T07:32:46.438Z,35.30
2018-08-03T07:35:15.358Z,36.00
2018-08-03T07:37:43.973Z,36.70
2018-08-03T07:40:12.598Z,37.40
2018-08-03T07:42:41.249Z,37.90
2018-08-03T07:45:09.916Z,38.50
2018-08-03T07:47:38.569Z,38.80
2018-08-03T07:50:07.175Z,38.60
2018-08-03T07:52:35.767Z,38.40
2018-08-03T07:55:04.280Z,38.60
2018-08-03T07:57:32.745Z,39.10
2018-08-03T08:00:01.198Z,39.50
2018-08-03T08:02:29.662Z,40.10
2018-08-03T08:04:58.090Z,39.90
2018-08-03T08:07:26.545Z,40.40
2018-08-03T08:09:54.979Z,41.00
2018-08-03T08:12:23.441Z,40.50
2018-08-03T08:14:52.034Z,40.60
2018-08-03T08:17:20.466Z,41.10
2018-08-03T08:19:48.918Z,41.30
2018-08-03T08:22:17.378Z,41.10
2018-08-03T08:24:45.809Z,41.40
2018-08-03T08:27:14.310Z,41.60
2018-08-03T08:29:42.752Z,41.60
2018-08-03T08:32:11.181Z,41.60
2018-08-03T08:34:39.684Z,42.00
2018-08-03T08:37:08.120Z,42.50
2018-08-03T08:39:36.576Z,42.40
2018-08-03T08:42:05.056Z,42.30
2018-08-03T08:44:33.538Z,42.90
2018-08-03T08:47:02.033Z,42.90
2018-08-03T08:49:30.492Z,42.60
2018-08-03T08:51:58.981Z,42.80
2018-08-03T08:54:27.445Z,42.80
2018-08-03T08:56:55.922Z,42.80
2018-08-03T08:59:24.387Z,42.80
2018-08-03T09:01:52.889Z,42.80
2018-08-03T09:04:21.321Z,42.50
2018-08-03T09:06:49.849Z,42.00
2018-08-03T09:09:18.258Z,42.70
2018-08-03T09:11:46.717Z,43.10
2018-08-03T09:14:15.161Z,43.20
2018-08-03T09:16:43.606Z,43.20
2018-08-03T09:19:12.072Z,43.00
2018-08-03T09:21:40.526Z,43.00
2018-08-03T09:24:08.989Z,42.90
2018-08-03T09:26:37.458Z,43.00
2018-08-03T09:29:05.935Z,43.20
2018-08-03T09:31:34.400Z,43.20
2018-08-03T09:36:31.057Z,42.60
2018-08-03T09:38:59.443Z,42.80
2018-08-03T09:41:27.898Z,42.70
2018-08-03T09:44:21.153Z,43.10
2018-08-03T09:46:49.761Z,43.30
2018-08-03T09:49:18.579Z,42.80
2018-08-03T09:51:47.204Z,42.30
2018-08-03T09:54:15.781Z,42.30
2018-08-03T09:56:44.391Z,42.80
2018-08-03T09:59:13.023Z,42.90
2018-08-03T10:01:41.769Z,43.00
2018-08-03T10:04:10.271Z,43.00
2018-08-03T10:06:38.846Z,42.50
2018-08-03T10:09:08.201Z,42.60
2018-08-03T10:11:36.791Z,42.70
2018-08-03T10:14:05.404Z,42.50
2018-08-03T10:16:33.970Z,42.90
2018-08-03T10:19:02.534Z,42.20
2018-08-03T10:21:31.142Z,42.00
2018-08-03T10:23:59.701Z,42.10
2018-08-03T10:26:28.306Z,41.70
2018-08-03T10:28:56.880Z,41.80
2018-08-03T10:31:25.474Z,41.80
2018-08-03T10:33:54.258Z,41.70
2018-08-03T10:36:23.013Z,41.70
2018-08-03T10:38:51.722Z,41.70
2018-08-03T10:41:20.318Z,42.00
2018-08-03T10:43:48.840Z,41.70
2018-08-03T10:46:17.414Z,41.90
2018-08-03T10:48:46.053Z,41.80
2018-08-03T10:51:14.652Z,41.60
2018-08-03T10:53:43.102Z,41.30
2018-08-03T10:56:11.575Z,41.00
2018-08-03T10:58:40.033Z,41.50
2018-08-03T11:01:08.488Z,41.40
2018-08-03T11:03:36.935Z,41.40
2018-08-03T11:06:05.525Z,40.90
2018-08-03T11:08:34.062Z,41.20
2018-08-03T11:11:02.642Z,41.60
2018-08-03T11:13:31.164Z,41.70
2018-08-03T11:15:59.740Z,41.90
2018-08-03T11:18:28.287Z,42.10
2018-08-03T11:20:56.920Z,41.70
2018-08-03T11:23:25.614Z,41.30
2018-08-03T11:28:47.771Z,41.30
2018-08-03T11:31:16.371Z,41.20
2018-08-03T11:33:44.955Z,41.10
2018-08-03T11:36:13.557Z,41.70
2018-08-03T11:38:42.204Z,42.00
2018-08-03T11:41:10.979Z,41.80
2018-08-03T11:43:39.631Z,41.50
2018-08-03T11:46:08.227Z,41.50
2018-08-03T11:48:36.914Z,41.80
2018-08-03T11:51:05.858Z,41.50
2018-08-03T11:53:34.544Z,42.00
2018-08-03T11:56:03.152Z,42.00
2018-08-03T11:58:31.739Z,42.60
2018-08-03T12:01:00.333Z,42.60
2018-08-03T12:03:28.927Z,42.80
2018-08-03T12:05:57.581Z,42.90
2018-08-03T12:08:26.494Z,43.10
2018-08-03T12:10:55.138Z,42.80
2018-08-03T12:13:23.808Z,42.50
2018-08-03T12:15:52.361Z,42.00
2018-08-03T12:18:21.006Z,41.70
2018-08-03T12:20:49.618Z,42.00
2018-08-03T12:23:18.218Z,42.10
2018-08-03T12:25:46.778Z,42.40
2018-08-03T12:28:15.360Z,42.50
2018-08-03T12:30:44.075Z,42.60
2018-08-03T12:33:22.341Z,41.60
2018-08-03T12:35:51.014Z,41.30
2018-08-03T12:38:19.726Z,41.60
2018-08-03T12:40:48.344Z,41.70
2018-08-03T12:43:16.965Z,41.00
2018-08-03T12:45:45.520Z,41.20
2018-08-03T12:48:14.091Z,41.30
2018-08-03T12:50:42.730Z,41.60
2018-08-03T12:53:11.321Z,42.00
2018-08-03T12:55:39.994Z,42.30
2018-08-03T12:58:08.596Z,42.20
2018-08-03T13:00:37.179Z,42.10
2018-08-03T13:03:05.747Z,42.30
2018-08-03T13:05:34.353Z,41.90
2018-08-03T13:08:03.201Z,41.20
2018-08-03T13:10:31.628Z,40.80
2018-08-03T13:18:56.851Z,40.40
2018-08-03T13:30:30.472Z,41.10
2018-08-03T13:32:59.125Z,41.60
2018-08-03T13:35:27.887Z,42.30
2018-08-03T13:37:56.611Z,42.60
2018-08-03T13:46:13.778Z,42.60
2018-08-03T13:48:43.123Z,41.80
2018-08-03T13:51:12.136Z,41.50
2018-08-03T13:53:40.698Z,41.70
2018-08-03T13:56:10.127Z,41.10
2018-08-03T13:58:38.721Z,39.80
2018-08-03T14:01:18.486Z,38.40
2018-08-03T14:03:47.160Z,37.20
2018-08-03T14:06:15.718Z,36.20
2018-08-03T14:08:46.258Z,35.70
2018-08-03T14:11:15.849Z,36.30
2018-08-03T14:13:44.657Z,37.40
2018-08-03T14:16:13.541Z,38.00
2018-08-03T14:18:49.950Z,38.90
2018-08-03T14:23:46.832Z,39.30
2018-08-03T14:26:15.503Z,39.80
2018-08-03T14:28:43.965Z,40.20
2018-08-03T14:31:12.472Z,40.50
2018-08-03T14:33:42.765Z,40.50
2018-08-03T14:36:11.464Z,40.00
2018-08-03T14:38:40.168Z,38.90
2018-08-03T14:41:08.778Z,37.70
2018-08-03T14:43:37.596Z,37.20
2018-08-03T14:46:06.283Z,37.70
2018-08-03T14:48:34.977Z,38.20
2018-08-03T14:51:03.533Z,38.60
2018-08-03T14:53:32.067Z,38.90
2018-08-03T14:56:00.797Z,38.90
2018-08-03T14:58:29.668Z,39.00
2018-08-03T15:00:58.329Z,38.90
2018-08-03T15:03:27.006Z,39.20
2018-08-03T15:05:55.685Z,39.20
2018-08-03T15:08:36.681Z,39.30
2018-08-03T15:11:05.284Z,39.00
2018-08-03T15:13:33.956Z,38.60
2018-08-03T15:16:02.590Z,38.60
2018-08-03T15:18:31.201Z,38.80
2018-08-03T15:20:59.825Z,39.10
2018-08-03T15:23:28.455Z,39.30
2018-08-03T15:25:57.106Z,39.40
2018-08-03T15:28:25.715Z,39.20
2018-08-03T15:30:54.354Z,39.20
2018-08-03T15:33:23.202Z,39.30
2018-08-03T15:35:51.809Z,38.90
2018-08-03T15:38:20.406Z,39.10
2018-08-03T15:40:49.103Z,39.60
2018-08-03T15:43:17.773Z,39.60
2018-08-03T15:48:44.749Z,39.30
2018-08-03T15:51:13.422Z,38.90
2018-08-03T15:53:42.079Z,38.80
2018-08-03T15:56:10.735Z,38.40
2018-08-03T15:58:39.440Z,38.00
2018-08-03T16:01:08.050Z,37.90
2018-08-03T16:03:36.657Z,37.70
2018-08-03T16:06:05.380Z,37.40
2018-08-03T16:08:34.012Z,37.40
2018-08-03T16:11:02.721Z,37.40
2018-08-03T16:13:31.417Z,37.30
2018-08-03T16:16:00.160Z,37.20
2018-08-03T16:18:28.837Z,36.90
2018-08-03T16:20:57.550Z,36.80
2018-08-03T16:23:26.218Z,36.80
2018-08-03T16:25:54.961Z,36.80
2018-08-03T16:28:23.633Z,37.10
2018-08-03T16:30:52.222Z,37.50
2018-08-03T16:33:20.972Z,37.40
2018-08-03T16:35:49.557Z,37.30
2018-08-03T16:38:18.225Z,37.40
2018-08-03T16:40:46.890Z,37.30
2018-08-03T16:43:15.511Z,37.30
2018-08-03T16:46:02.348Z,37.40
2018-08-03T16:48:30.999Z,37.30
2018-08-03T16:50:59.694Z,37.50
2018-08-03T16:53:28.586Z,37.20
2018-08-03T16:55:57.300Z,37.00
2018-08-03T16:58:25.980Z,36.80
2018-08-03T17:00:54.923Z,36.30
2018-08-03T17:03:23.573Z,35.80
2018-08-03T17:05:52.201Z,35.20
2018-08-03T17:08:21.015Z,34.70
2018-08-03T17:10:49.654Z,34.30
2018-08-03T17:13:18.323Z,34.10
2018-08-03T17:15:46.936Z,33.80
2018-08-03T17:18:15.610Z,33.60
2018-08-03T17:20:44.311Z,33.40
2018-08-03T17:23:12.937Z,33.20
2018-08-03T17:25:41.705Z,33.10
2018-08-03T17:28:10.296Z,33.00
2018-08-03T17:30:38.947Z,32.80
2018-08-03T17:35:35.855Z,32.40
2018-08-03T17:38:04.544Z,32.20
2018-08-03T17:40:33.209Z,32.10
2018-08-03T17:43:01.898Z,31.90
2018-08-03T17:45:30.607Z,31.80
2018-08-03T17:47:59.357Z,31.60
2018-08-03T17:52:56.259Z,31.40
2018-08-03T17:55:24.974Z,31.20
2018-08-03T17:57:53.650Z,31.20
2018-08-03T18:00:22.321Z,31.00
2018-08-03T18:02:51.015Z,30.80
2018-08-03T18:05:19.688Z,30.60
2018-08-03T18:07:48.405Z,30.40
2018-08-03T18:10:17.021Z,30.20
2018-08-03T18:12:45.701Z,29.90
2018-08-03T18:15:14.498Z,29.70
2018-08-03T18:17:43.222Z,29.50
2018-08-03T18:20:12.017Z,29.40
2018-08-03T18:22:40.664Z,29.20
2018-08-03T18:25:09.400Z,29.00
2018-08-03T18:27:38.220Z,28.90
2018-08-03T18:30:07.315Z,28.70
2018-08-03T18:41:32.309Z,28.00
2018-08-03T18:44:01.018Z,27.90
2018-08-03T18:46:29.831Z,27.70
2018-08-03T18:48:58.566Z,27.50
2018-08-03T18:51:27.230Z,27.20
2018-08-03T18:53:55.906Z,27.10
2018-08-03T18:56:24.621Z,26.90
2018-08-03T18:58:53.265Z,26.70
2018-08-03T19:01:21.978Z,26.60
2018-08-03T19:03:50.713Z,26.40
2018-08-03T19:06:19.557Z,26.30
2018-08-03T19:08:48.322Z,26.10
2018-08-03T19:11:22.014Z,25.90
2018-08-03T19:13:51.825Z,25.80
2018-08-03T19:16:20.570Z,25.70
2018-08-03T19:18:55.383Z,25.60
2018-08-03T19:21:24.036Z,25.60
2018-08-03T19:23:52.673Z,25.50
2018-08-03T19:26:27.098Z,25.50
2018-08-03T19:28:55.856Z,25.40
2018-08-03T19:31:24.728Z,25.30
2018-08-03T19:33:53.521Z,25.20
2018-08-03T19:36:28.390Z,25.10
2018-08-03T19:38:57.041Z,25.00
2018-08-03T19:41:25.760Z,25.00
2018-08-03T19:43:54.455Z,24.90
2018-08-03T19:46:23.181Z,24.90
2018-08-03T19:48:51.999Z,24.80
2018-08-03T19:51:20.696Z,24.80
2018-08-03T19:54:00.156Z,24.70
2018-08-03T19:56:28.927Z,24.70
2018-08-03T19:58:57.733Z,24.60
2018-08-03T20:01:26.410Z,24.50
2018-08-03T20:03:55.513Z,24.50
2018-08-03T20:06:24.236Z,24.40
2018-08-03T20:08:52.870Z,24.40
2018-08-03T20:11:21.675Z,24.30
2018-08-03T20:13:50.484Z,24.30
2018-08-03T20:16:19.174Z,24.20
2018-08-03T20:18:47.903Z,24.20
2018-08-03T20:21:16.530Z,24.10
2018-08-03T20:23:45.284Z,24.00
2018-08-03T20:26:13.886Z,23.90
2018-08-03T20:28:42.466Z,23.90
2018-08-03T20:31:11.193Z,23.90
2018-08-03T20:33:39.989Z,24.00
2018-08-03T20:36:08.714Z,24.00
2018-08-03T20:38:37.361Z,24.00
2018-08-03T20:41:06.058Z,24.00
2018-08-03T20:43:34.812Z,24.00
2018-08-03T20:46:03.577Z,24.00
2018-08-03T20:48:32.286Z,24.10
2018-08-03T20:51:00.949Z,24.10
2018-08-03T20:53:29.686Z,24.10
2018-08-03T20:55:58.352Z,24.10
2018-08-03T21:00:55.514Z,23.80
2018-08-03T21:03:24.221Z,23.80
2018-08-03T21:05:52.962Z,23.70
2018-08-03T21:08:21.591Z,23.60
2018-08-03T21:10:50.214Z,23.60
2018-08-03T21:13:18.855Z,23.50
2018-08-03T21:15:47.406Z,23.40
2018-08-03T21:18:16.054Z,23.30
2018-08-03T21:20:44.761Z,23.30
2018-08-03T21:23:13.399Z,23.20
2018-08-03T21:25:42.098Z,23.20
2018-08-03T21:28:10.833Z,23.20
2018-08-03T21:30:39.552Z,23.10
2018-08-03T21:33:08.237Z,23.00
2018-08-03T21:35:37.814Z,23.00
2018-08-03T21:38:06.434Z,23.00
2018-08-03T21:40:35.164Z,22.90
2018-08-03T21:43:03.926Z,22.90
2018-08-03T21:45:32.626Z,22.90
2018-08-03T21:48:01.282Z,22.90
2018-08-03T21:50:29.983Z,22.80
2018-08-03T21:52:58.660Z,22.80
2018-08-03T21:55:27.327Z,22.70
2018-08-03T21:57:55.975Z,22.70
2018-08-03T22:00:24.614Z,22.70
2018-08-03T22:02:53.331Z,22.60
2018-08-03T22:05:21.958Z,22.60
2018-08-03T22:07:50.632Z,22.70
2018-08-03T22:10:19.258Z,22.70
2018-08-03T22:12:47.955Z,22.70
2018-08-03T22:15:16.653Z,22.70
2018-08-03T22:17:45.327Z,22.70
2018-08-03T22:20:14.001Z,22.70
2018-08-03T22:22:42.659Z,22.70
2018-08-03T22:25:11.356Z,22.70
2018-08-03T22:32:36.636Z,22.60
2018-08-03T22:35:05.218Z,22.50
2018-08-03T22:37:34.171Z,22.40
2018-08-03T22:40:03.002Z,22.30
2018-08-03T22:42:31.583Z,22.20
2018-08-03T22:45:00.433Z,22.10
2018-08-03T22:49:57.376Z,22.00
2018-08-03T22:52:26.003Z,22.00
2018-08-03T22:54:54.792Z,22.00
2018-08-03T22:57:23.529Z,22.10
2018-08-03T22:59:52.223Z,22.10
2018-08-03T23:02:20.870Z,22.10
2018-08-03T23:04:56.620Z,22.00
2018-08-03T23:07:25.311Z,22.00
2018-08-03T23:09:54.193Z,21.90
2018-08-03T23:12:22.819Z,21.80
2018-08-03T23:14:51.548Z,21.80
2018-08-03T23:17:20.209Z,21.80
2018-08-03T23:19:48.877Z,21.80
2018-08-03T23:22:17.481Z,21.80
2018-08-03T23:24:46.181Z,21.80
2018-08-03T23:27:14.830Z,21.70
2018-08-03T23:29:43.477Z,21.70
2018-08-03T23:32:12.104Z,21.60
2018-08-03T23:34:40.806Z,21.50
2018-08-03T23:37:09.445Z,21.40
2018-08-03T23:39:38.137Z,21.40
2018-08-03T23:42:06.700Z,21.40
2018-08-03T23:44:35.201Z,21.60
2018-08-03T23:47:03.829Z,21.60
2018-08-03T23:49:32.581Z,21.60
2018-08-03T23:52:01.214Z,21.50
2018-08-03T23:54:29.975Z,21.50
2018-08-03T23:56:58.686Z,21.40
2018-08-03T23:59:27.374Z,21.50
